Time;durP1;ratioP1;P1;durP2;ratioP2;P2;SDS_P1;SDS_P2;PMS_P1;PMS_P2;Temp;Humidity;BMP_temperature;BMP_pressure;BME280_temperature;BME280_humidity;BME280_pressure;Samples;Min_cycle;Max_cycle;Signal;HPM_P1;HPM_P2
2022/12/12 00:01:53;;;;;;;38.15;15.68;;;;;;;;;;4995044;28;20083;-77
2022/12/12 00:04:19;;;;;;;33.35;14.43;;;;;;;;;;4994719;28;20034;-77
2022/12/12 00:06:45;;;;;;;34.97;14.88;;;;;;;;;;4994709;28;20029;-77
2022/12/12 00:09:11;;;;;;;36.00;14.40;;;;;;;;;;4994665;28;20030;-77
2022/12/12 00:11:37;;;;;;;35.97;14.98;;;;;;;;;;4994389;28;20072;-77
2022/12/12 00:14:04;;;;;;;37.97;14.75;;;;;;;;;;4994589;28;20046;-77
2022/12/12 00:16:30;;;;;;;35.67;15.25;;;;;;;;;;4994275;28;20038;-77
2022/12/12 00:18:56;;;;;;;38.20;15.13;;;;;;;;;;4994354;28;20158;-77
2022/12/12 00:21:23;;;;;;;35.67;14.70;;;;;;;;;;4994282;28;20109;-77
2022/12/12 00:23:49;;;;;;;33.90;14.20;;;;;;;;;;4994389;28;20040;-77
2022/12/12 00:26:18;;;;;;;38.13;14.77;;;;;;;;;;4994184;28;20037;-77
2022/12/12 00:28:44;;;;;;;37.08;15.15;;;;;;;;;;4994231;28;20030;-77
2022/12/12 00:31:10;;;;;;;36.08;13.98;;;;;;;;;;4994444;28;20018;-77
2022/12/12 00:33:36;;;;;;;37.55;15.30;;;;;;;;;;4976695;28;20030;-77
2022/12/12 00:36:02;;;;;;;39.63;15.02;;;;;;;;;;4993988;28;20030;-77
2022/12/12 00:38:29;;;;;;;38.75;15.35;;;;;;;;;;4993929;28;20097;-77
2022/12/12 00:40:56;;;;;;;40.63;14.93;;;;;;;;;;4994526;28;20018;-77
2022/12/12 00:43:23;;;;;;;42.65;16.52;;;;;;;;;;4993975;28;20058;-77
2022/12/12 00:45:49;;;;;;;43.40;15.48;;;;;;;;;;4993809;28;20033;-77
2022/12/12 00:48:15;;;;;;;42.15;15.48;;;;;;;;;;4994079;28;20023;-77
2022/12/12 00:50:41;;;;;;;39.20;15.43;;;;;;;;;;4993842;28;20085;-77
2022/12/12 00:53:07;;;;;;;36.63;15.10;;;;;;;;;;4993566;28;20370;-77
2022/12/12 00:55:33;;;;;;;44.90;17.50;;;;;;;;;;4975770;28;20112;-77
2022/12/12 00:57:59;;;;;;;42.95;17.42;;;;;;;;;;4993519;28;20619;-77
2022/12/12 01:00:25;;;;;;;41.25;16.60;;;;;;;;;;4993937;28;20023;-77
2022/12/12 01:02:51;;;;;;;42.88;15.48;;;;;;;;;;4994022;28;20033;-77
2022/12/12 01:05:18;;;;;;;42.90;15.77;;;;;;;;;;4993698;28;20026;-77
2022/12/12 01:07:44;;;;;;;44.17;17.85;;;;;;;;;;4993783;28;20105;-77
2022/12/12 01:10:10;;;;;;;45.13;17.02;;;;;;;;;;4976129;28;20169;-77
2022/12/12 01:12:36;;;;;;;42.15;16.27;;;;;;;;;;4993818;28;20031;-77
2022/12/12 01:15:02;;;;;;;47.45;17.40;;;;;;;;;;4994867;28;20484;-77
2022/12/12 01:17:34;;;;;;;45.88;17.75;;;;;;;;;;4997481;28;20030;-77
2022/12/12 01:20:01;;;;;;;48.90;17.48;;;;;;;;;;4997938;28;20461;-77
2022/12/12 01:22:27;;;;;;;48.03;16.75;;;;;;;;;;4998042;28;20030;-77
2022/12/12 01:24:55;;;;;;;51.03;16.98;;;;;;;;;;4997555;28;20113;-77
2022/12/12 01:27:22;;;;;;;45.45;16.67;;;;;;;;;;4994077;28;20019;-77
2022/12/12 01:29:48;;;;;;;46.17;16.85;;;;;;;;;;4977998;28;20098;-77
2022/12/12 01:32:15;;;;;;;47.63;16.42;;;;;;;;;;4961039;28;20069;-77
2022/12/12 01:34:41;;;;;;;54.33;18.10;;;;;;;;;;4978573;28;20027;-77
2022/12/12 01:37:06;;;;;;;50.40;17.90;;;;;;;;;;4978360;28;20023;-77
2022/12/12 01:39:32;;;;;;;46.78;18.92;;;;;;;;;;4977815;28;20154;-77
2022/12/12 01:41:58;;;;;;;50.90;18.52;;;;;;;;;;4960516;28;20030;-77
2022/12/12 01:44:45;;;;;;;55.28;18.90;;;;;;;;;;4977856;28;20429;-77
2022/12/12 01:47:15;;;;;;;45.78;17.10;;;;;;;;;;4979290;28;20057;-77
2022/12/12 01:49:43;;;;;;;47.85;17.67;;;;;;;;;;4997055;28;20381;-77
2022/12/12 01:52:12;;;;;;;43.80;17.23;;;;;;;;;;4976137;28;20109;-77
2022/12/12 01:54:43;;;;;;;51.75;17.98;;;;;;;;;;4991442;28;20081;-77
2022/12/12 01:57:12;;;;;;;50.95;18.10;;;;;;;;;;5004523;28;20026;-77
2022/12/12 01:59:39;;;;;;;50.58;18.73;;;;;;;;;;5001282;28;20490;-77
2022/12/12 02:02:06;;;;;;;46.33;16.77;;;;;;;;;;4979381;28;20034;-77
2022/12/12 02:04:32;;;;;;;45.67;17.60;;;;;;;;;;4996648;28;20031;-77
2022/12/12 02:06:58;;;;;;;52.33;17.42;;;;;;;;;;4996845;28;20034;-77
2022/12/12 02:09:25;;;;;;;46.33;17.65;;;;;;;;;;4996561;28;20101;-77
2022/12/12 02:11:52;;;;;;;49.25;17.00;;;;;;;;;;4996753;28;20030;-77
2022/12/12 02:14:21;;;;;;;44.47;17.23;;;;;;;;;;4996495;28;20121;-77
2022/12/12 02:17:08;;;;;;;46.03;16.05;;;;;;;;;;4996558;28;20022;-77
2022/12/12 02:19:37;;;;;;;47.08;16.85;;;;;;;;;;4996398;28;20196;-77
2022/12/12 02:22:10;;;;;;;45.60;17.38;;;;;;;;;;4996453;28;20030;-77
2022/12/12 02:24:39;;;;;;;45.95;17.05;;;;;;;;;;4996500;28;20039;-77
2022/12/12 02:27:24;;;;;;;37.67;14.05;;;;;;;;;;4995062;28;20037;-77
2022/12/12 02:30:02;;;;;;;40.05;17.45;;;;;;;;;;4996894;28;20023;-77
2022/12/12 02:32:43;;;;;;;41.90;16.67;;;;;;;;;;4982103;28;20031;-78
2022/12/12 02:35:19;;;;;;;48.28;18.52;;;;;;;;;;4992120;28;20023;-77
2022/12/12 02:38:02;;;;;;;44.45;17.13;;;;;;;;;;4995753;28;20562;-77
2022/12/12 02:40:37;;;;;;;39.83;17.30;;;;;;;;;;4996090;28;20113;-77
2022/12/12 02:43:03;;;;;;;45.67;17.42;;;;;;;;;;4976472;28;20058;-77
2022/12/12 02:45:29;;;;;;;42.72;16.77;;;;;;;;;;4991910;28;20026;-77
2022/12/12 02:48:01;;;;;;;41.70;17.25;;;;;;;;;;4995738;28;20414;-77
2022/12/12 02:50:29;;;;;;;45.53;18.52;;;;;;;;;;4988606;28;20022;-77
2022/12/12 02:52:55;;;;;;;39.90;15.85;;;;;;;;;;4994984;28;20057;-77
2022/12/12 02:55:21;;;;;;;45.40;17.30;;;;;;;;;;4987376;28;20113;-77
2022/12/12 02:57:48;;;;;;;41.35;15.70;;;;;;;;;;4992055;28;20106;-77
2022/12/12 03:00:16;;;;;;;40.97;16.55;;;;;;;;;;4989397;28;20029;-77
2022/12/12 03:08:44;;;;;;;34.42;13.27;;;;;;;;;;4995063;28;20151;-77
2022/12/12 03:11:10;;;;;;;38.30;15.70;;;;;;;;;;4995101;28;20034;-77
2022/12/12 03:13:51;;;;;;;36.58;14.25;;;;;;;;;;4995224;28;20045;-77
2022/12/12 03:16:20;;;;;;;38.20;14.80;;;;;;;;;;4994378;28;20029;-77
2022/12/12 03:18:55;;;;;;;36.17;15.32;;;;;;;;;;4981491;28;20480;-77
2022/12/12 03:21:23;;;;;;;37.88;16.33;;;;;;;;;;4975913;28;20057;-77
2022/12/12 03:23:52;;;;;;;36.90;14.93;;;;;;;;;;4990967;28;20085;-77
2022/12/12 03:26:27;;;;;;;36.20;15.27;;;;;;;;;;4995438;28;20042;-77
2022/12/12 03:29:17;;;;;;;33.60;14.75;;;;;;;;;;4994999;28;20480;-77
2022/12/12 03:31:46;;;;;;;39.13;15.68;;;;;;;;;;4992409;28;20097;-78
2022/12/12 03:34:19;;;;;;;34.70;14.25;;;;;;;;;;5014844;28;20044;-78
2022/12/12 03:36:51;;;;;;;36.13;15.23;;;;;;;;;;5014687;28;20036;-78
2022/12/12 03:39:20;;;;;;;38.28;14.98;;;;;;;;;;5014452;28;20384;-78
2022/12/12 03:42:18;;;;;;;36.63;13.90;;;;;;;;;;5012119;28;20026;-78
2022/12/12 03:44:50;;;;;;;40.05;14.15;;;;;;;;;;4962081;28;20400;-78
2022/12/12 03:47:19;;;;;;;35.22;14.25;;;;;;;;;;4982389;28;20022;-78
2022/12/12 03:49:57;;;;;;;33.83;13.65;;;;;;;;;;4994601;28;20101;-77
2022/12/12 03:52:27;;;;;;;38.97;13.93;;;;;;;;;;4975401;28;20031;-78
2022/12/12 03:54:58;;;;;;;34.63;13.95;;;;;;;;;;4975086;28;20066;-78
2022/12/12 03:57:24;;;;;;;;;;;;;;;;;;4975861;28;20035;-78
2022/12/12 04:00:02;;;;;;;35.20;14.05;;;;;;;;;;4974982;28;19917;-77
2022/12/12 04:02:34;;;;;;;32.15;13.25;;;;;;;;;;4975581;28;20034;-78
2022/12/12 04:05:03;;;;;;;33.65;13.00;;;;;;;;;;4975502;28;20061;-78
2022/12/12 04:07:32;;;;;;;32.67;13.10;;;;;;;;;;4984367;28;20035;-78
2022/12/12 04:13:02;;;;;;;30.27;12.85;;;;;;;;;;4980835;28;20126;-78
2022/12/12 04:15:28;;;;;;;33.05;14.32;;;;;;;;;;4975311;28;20362;-78
2022/12/12 04:18:02;;;;;;;34.08;14.25;;;;;;;;;;4975253;28;20632;-78
2022/12/12 04:23:39;;;;;;;34.27;13.57;;;;;;;;;;4994847;28;20046;-78
2022/12/12 04:29:08;;;;;;;32.70;13.68;;;;;;;;;;4975113;28;20441;-78
2022/12/12 04:31:37;;;;;;;34.45;13.73;;;;;;;;;;4975142;28;20461;-78
2022/12/12 04:34:07;;;;;;;30.45;12.80;;;;;;;;;;4957402;28;20393;-78
2022/12/12 04:36:34;;;;;;;33.20;13.50;;;;;;;;;;4974920;28;20027;-78
2022/12/12 04:39:01;;;;;;;30.80;13.13;;;;;;;;;;4981948;28;20026;-78
2022/12/12 04:41:31;;;;;;;32.90;13.10;;;;;;;;;;4983174;28;20034;-78
2022/12/12 04:43:59;;;;;;;30.77;12.32;;;;;;;;;;4974890;28;20102;-78
2022/12/12 04:46:27;;;;;;;30.45;12.80;;;;;;;;;;5006671;28;20033;-78
2022/12/12 04:48:59;;;;;;;36.15;12.88;;;;;;;;;;5013446;28;20046;-78
2022/12/12 04:51:40;;;;;;;28.92;13.18;;;;;;;;;;5013376;28;20084;-78
2022/12/12 04:54:19;;;;;;;29.77;13.00;;;;;;;;;;5013506;28;20034;-78
2022/12/12 04:56:48;;;;;;;29.35;12.35;;;;;;;;;;5013701;28;20042;-77
2022/12/12 04:59:14;;;;;;;29.80;12.55;;;;;;;;;;5001614;28;20138;-78
2022/12/12 05:01:52;;;;;;;30.42;13.05;;;;;;;;;;4976686;28;20125;-78
2022/12/12 05:04:42;;;;;;;27.63;11.63;;;;;;;;;;4994086;28;20047;-79
2022/12/12 05:07:10;;;;;;;29.10;12.48;;;;;;;;;;4983668;28;20074;-78
2022/12/12 05:09:37;;;;;;;28.85;12.07;;;;;;;;;;4993618;28;20450;-78
2022/12/12 05:12:03;;;;;;;29.40;11.63;;;;;;;;;;4993912;28;20026;-78
2022/12/12 05:14:30;;;;;;;33.67;11.93;;;;;;;;;;4993717;28;20026;-78
2022/12/12 05:16:59;;;;;;;31.25;12.25;;;;;;;;;;4993738;28;20081;-78
2022/12/12 05:19:25;;;;;;;29.95;13.07;;;;;;;;;;4993884;28;20030;-78
2022/12/12 05:21:51;;;;;;;30.58;11.75;;;;;;;;;;4991464;28;20084;-78
2022/12/12 05:24:17;;;;;;;28.50;12.57;;;;;;;;;;4978799;28;20033;-78
2022/12/12 05:26:43;;;;;;;27.52;12.75;;;;;;;;;;4993597;28;20070;-78
2022/12/12 05:29:10;;;;;;;26.85;11.10;;;;;;;;;;4993253;28;20030;-78
2022/12/12 05:31:36;;;;;;;26.90;11.15;;;;;;;;;;4993801;28;20031;-78
2022/12/12 05:34:03;;;;;;;30.88;12.82;;;;;;;;;;4994040;28;20037;-78
2022/12/12 05:36:29;;;;;;;24.42;11.02;;;;;;;;;;4994148;28;20026;-78
2022/12/12 05:38:55;;;;;;;32.53;13.55;;;;;;;;;;4994007;28;20015;-78
2022/12/12 05:41:21;;;;;;;27.95;12.18;;;;;;;;;;4994096;28;20153;-78
2022/12/12 05:43:47;;;;;;;28.70;12.60;;;;;;;;;;4994055;28;20092;-78
2022/12/12 05:46:13;;;;;;;29.17;12.02;;;;;;;;;;4993719;28;20034;-78
2022/12/12 05:48:39;;;;;;;26.58;11.60;;;;;;;;;;4993918;28;20026;-78
2022/12/12 05:51:05;;;;;;;27.73;12.02;;;;;;;;;;4994401;28;20046;-79
2022/12/12 05:53:31;;;;;;;25.23;12.50;;;;;;;;;;4992281;28;20037;-79
2022/12/12 05:55:58;;;;;;;28.25;12.60;;;;;;;;;;4993817;28;20085;-79
2022/12/12 05:58:24;;;;;;;24.40;11.02;;;;;;;;;;4994123;28;20062;-79
2022/12/12 06:00:51;;;;;;;25.33;11.02;;;;;;;;;;4994580;28;20105;-79
2022/12/12 06:03:17;;;;;;;25.92;11.02;;;;;;;;;;4997336;28;20031;-78
2022/12/12 06:05:43;;;;;;;30.05;12.05;;;;;;;;;;4997524;28;20027;-79
2022/12/12 06:08:09;;;;;;;28.30;12.80;;;;;;;;;;4997501;28;20026;-79
2022/12/12 06:10:35;;;;;;;30.13;12.85;;;;;;;;;;4997558;28;20350;-79
2022/12/12 06:13:01;;;;;;;29.73;12.23;;;;;;;;;;5009133;28;20034;-79
2022/12/12 06:15:27;;;;;;;29.20;12.25;;;;;;;;;;5017829;28;20144;-79
2022/12/12 06:17:53;;;;;;;32.25;12.77;;;;;;;;;;4997964;28;20397;-79
2022/12/12 06:20:19;;;;;;;29.15;11.38;;;;;;;;;;4997373;28;20101;-79
2022/12/12 06:22:45;;;;;;;28.88;12.43;;;;;;;;;;4996982;28;20030;-79
2022/12/12 06:25:11;;;;;;;27.42;11.77;;;;;;;;;;4996995;28;20102;-79
2022/12/12 06:27:37;;;;;;;26.92;11.48;;;;;;;;;;4997261;28;20026;-78
2022/12/12 06:30:05;;;;;;;26.90;12.10;;;;;;;;;;4997184;28;20018;-78
2022/12/12 06:32:31;;;;;;;25.85;11.02;;;;;;;;;;4997392;28;20030;-78
2022/12/12 06:34:57;;;;;;;27.08;11.88;;;;;;;;;;4997220;28;20102;-78
2022/12/12 06:37:23;;;;;;;27.15;12.27;;;;;;;;;;4996821;28;20065;-78
2022/12/12 06:39:49;;;;;;;27.05;12.27;;;;;;;;;;4997280;28;20064;-79
2022/12/12 06:42:15;;;;;;;26.20;12.13;;;;;;;;;;4997259;28;20026;-78
2022/12/12 06:44:42;;;;;;;26.98;12.00;;;;;;;;;;4997306;28;20093;-78
2022/12/12 06:47:08;;;;;;;29.60;12.93;;;;;;;;;;4997150;28;20129;-79
2022/12/12 06:49:34;;;;;;;30.92;12.57;;;;;;;;;;4996927;28;20497;-78
2022/12/12 06:51:59;;;;;;;29.52;13.27;;;;;;;;;;4996855;28;20026;-79
2022/12/12 06:54:26;;;;;;;30.15;12.52;;;;;;;;;;4979461;28;20477;-79
2022/12/12 06:56:52;;;;;;;30.40;13.52;;;;;;;;;;4996938;28;20089;-78
2022/12/12 06:59:18;;;;;;;31.33;13.77;;;;;;;;;;4996617;28;20030;-78
2022/12/12 07:01:44;;;;;;;29.45;12.55;;;;;;;;;;4996681;28;20027;-79
2022/12/12 07:04:13;;;;;;;28.17;12.55;;;;;;;;;;4996697;28;20031;-79
2022/12/12 07:06:39;;;;;;;27.85;11.98;;;;;;;;;;4996644;28;20343;-79
2022/12/12 07:09:07;;;;;;;29.17;12.23;;;;;;;;;;5014982;28;20033;-78
2022/12/12 07:11:33;;;;;;;27.23;12.38;;;;;;;;;;5015917;28;20037;-78
2022/12/12 07:14:02;;;;;;;28.35;12.63;;;;;;;;;;4997478;28;20030;-78
2022/12/12 07:16:28;;;;;;;31.63;12.10;;;;;;;;;;5017206;28;20033;-79
2022/12/12 07:18:54;;;;;;;27.25;12.27;;;;;;;;;;5016468;28;20026;-79
2022/12/12 07:21:20;;;;;;;25.73;11.77;;;;;;;;;;5015553;28;20402;-79
2022/12/12 07:23:46;;;;;;;27.60;12.43;;;;;;;;;;5015254;28;20048;-78
2022/12/12 07:26:14;;;;;;;29.20;11.93;;;;;;;;;;5015527;28;20448;-78
2022/12/12 07:28:40;;;;;;;28.48;12.48;;;;;;;;;;5015290;28;20041;-78
2022/12/12 07:31:07;;;;;;;26.90;12.90;;;;;;;;;;5015920;28;20357;-79
2022/12/12 07:33:33;;;;;;;27.75;11.55;;;;;;;;;;5015854;28;20025;-79
2022/12/12 07:35:59;;;;;;;27.00;12.23;;;;;;;;;;5015521;28;20028;-79
2022/12/12 07:38:26;;;;;;;28.40;11.55;;;;;;;;;;4976873;28;20151;-79
2022/12/12 07:40:52;;;;;;;28.73;11.98;;;;;;;;;;4976601;28;20546;-79
2022/12/12 07:43:18;;;;;;;33.75;15.23;;;;;;;;;;4976707;28;20105;-79
2022/12/12 07:45:44;;;;;;;27.90;12.98;;;;;;;;;;4976888;28;20019;-79
2022/12/12 07:48:11;;;;;;;29.20;12.75;;;;;;;;;;4976613;28;20031;-78
2022/12/12 07:50:38;;;;;;;27.83;12.07;;;;;;;;;;4976652;28;20030;-78
2022/12/12 07:53:04;;;;;;;30.67;13.23;;;;;;;;;;4976196;28;20441;-78
2022/12/12 07:55:30;;;;;;;33.95;14.10;;;;;;;;;;4976288;28;20498;-78
2022/12/12 07:57:56;;;;;;;29.40;13.40;;;;;;;;;;4976804;28;20030;-78
2022/12/12 08:00:22;;;;;;;29.48;13.35;;;;;;;;;;4976356;28;20023;-78
2022/12/12 08:02:48;;;;;;;30.45;13.20;;;;;;;;;;4977087;28;20027;-78
2022/12/12 08:05:15;;;;;;;30.20;14.07;;;;;;;;;;4992926;28;20026;-78
2022/12/12 08:07:41;;;;;;;32.97;14.27;;;;;;;;;;4990125;28;20030;-79
2022/12/12 08:10:07;;;;;;;33.10;14.38;;;;;;;;;;4978163;28;20088;-78
2022/12/12 08:12:33;;;;;;;32.25;14.43;;;;;;;;;;4996959;28;20098;-78
2022/12/12 08:14:59;;;;;;;35.67;14.93;;;;;;;;;;4987200;28;20442;-78
2022/12/12 08:17:25;;;;;;;33.75;14.57;;;;;;;;;;4976518;28;20030;-78
2022/12/12 08:19:51;;;;;;;32.15;14.10;;;;;;;;;;4978747;28;20039;-79
2022/12/12 08:22:17;;;;;;;30.63;13.18;;;;;;;;;;4984759;28;20077;-78
2022/12/12 08:24:43;;;;;;;31.40;13.45;;;;;;;;;;4995476;28;20077;-79
2022/12/12 08:27:10;;;;;;;34.90;13.55;;;;;;;;;;4987329;28;20050;-79
2022/12/12 08:29:36;;;;;;;35.10;15.48;;;;;;;;;;4967809;28;20043;-78
2022/12/12 08:32:02;;;;;;;32.25;13.82;;;;;;;;;;4992715;28;20057;-78
2022/12/12 08:34:28;;;;;;;33.30;13.73;;;;;;;;;;4995628;28;20093;-78
2022/12/12 08:36:54;;;;;;;29.65;13.50;;;;;;;;;;4995626;28;20057;-79
2022/12/12 08:39:20;;;;;;;31.95;14.20;;;;;;;;;;4978345;28;20030;-78
2022/12/12 08:41:47;;;;;;;32.10;14.10;;;;;;;;;;4978826;28;20030;-79
2022/12/12 08:44:13;;;;;;;36.00;14.18;;;;;;;;;;4981877;28;20023;-79
2022/12/12 08:46:40;;;;;;;34.72;14.02;;;;;;;;;;4976164;28;20455;-79
2022/12/12 08:49:07;;;;;;;33.42;14.10;;;;;;;;;;4976956;28;20488;-79
2022/12/12 08:51:33;;;;;;;34.63;13.82;;;;;;;;;;4987088;28;20026;-79
2022/12/12 08:53:59;;;;;;;30.38;14.10;;;;;;;;;;4995019;28;20045;-79
2022/12/12 08:56:25;;;;;;;30.08;13.77;;;;;;;;;;4995462;28;20054;-78
2022/12/12 08:58:51;;;;;;;32.63;14.13;;;;;;;;;;4996675;28;20037;-79
2022/12/12 09:01:24;;;;;;;32.10;14.23;;;;;;;;;;4994945;28;20426;-78
2022/12/12 09:03:51;;;;;;;34.47;14.75;;;;;;;;;;4996152;28;20031;-79
2022/12/12 09:06:17;;;;;;;31.48;13.60;;;;;;;;;;4996220;28;20026;-79
2022/12/12 09:08:43;;;;;;;32.83;14.88;;;;;;;;;;4994986;28;20050;-79
2022/12/12 09:11:10;;;;;;;29.67;14.07;;;;;;;;;;4982001;28;20359;-79
2022/12/12 09:13:36;;;;;;;36.70;14.82;;;;;;;;;;4995230;28;20026;-78
2022/12/12 09:16:02;;;;;;;34.70;14.27;;;;;;;;;;4995467;28;20022;-79
2022/12/12 09:18:29;;;;;;;32.53;14.38;;;;;;;;;;4995519;28;20019;-79
2022/12/12 09:20:56;;;;;;;34.15;15.43;;;;;;;;;;4996285;28;20038;-79
2022/12/12 09:23:22;;;;;;;35.13;15.30;;;;;;;;;;4994947;28;20033;-79
2022/12/12 09:25:49;;;;;;;33.75;15.23;;;;;;;;;;4995194;28;20057;-78
2022/12/12 09:28:16;;;;;;;33.05;14.75;;;;;;;;;;4997016;28;20030;-79
2022/12/12 09:30:43;;;;;;;31.48;14.60;;;;;;;;;;4995398;28;20050;-78
2022/12/12 09:33:09;;;;;;;34.25;15.20;;;;;;;;;;4995133;28;20109;-79
2022/12/12 09:35:35;;;;;;;29.08;12.80;;;;;;;;;;4995885;28;20054;-79
2022/12/12 09:38:01;;;;;;;34.97;15.05;;;;;;;;;;4989370;28;20538;-79
2022/12/12 09:40:29;;;;;;;35.13;15.73;;;;;;;;;;4979387;28;20027;-79
2022/12/12 09:42:55;;;;;;;32.20;15.13;;;;;;;;;;4996253;28;20438;-78
2022/12/12 09:45:21;;;;;;;36.97;16.25;;;;;;;;;;4993825;28;20062;-79
2022/12/12 09:47:50;;;;;;;32.83;15.45;;;;;;;;;;4980694;28;20054;-79
2022/12/12 09:50:31;;;;;;;37.60;16.17;;;;;;;;;;4998271;28;20042;-79
2022/12/12 09:53:04;;;;;;;36.53;15.45;;;;;;;;;;4995393;28;20540;-78
2022/12/12 09:55:30;;;;;;;34.85;15.48;;;;;;;;;;4978205;28;20054;-78
2022/12/12 09:58:03;;;;;;;30.17;14.35;;;;;;;;;;4978623;28;20019;-78
2022/12/12 10:00:31;;;;;;;31.80;14.68;;;;;;;;;;4978485;28;20033;-78
2022/12/12 10:03:14;;;;;;;32.15;14.30;;;;;;;;;;4979763;28;20031;-78
2022/12/12 10:05:44;;;;;;;33.80;14.57;;;;;;;;;;4962806;28;20421;-78
2022/12/12 10:08:16;;;;;;;33.75;14.48;;;;;;;;;;4964706;28;20026;-79
2022/12/12 10:10:43;;;;;;;32.47;14.55;;;;;;;;;;4963681;28;20097;-79
2022/12/12 10:13:21;;;;;;;32.92;14.82;;;;;;;;;;4963377;28;20080;-78
2022/12/12 10:15:48;;;;;;;37.42;15.35;;;;;;;;;;4967785;28;20051;-79
2022/12/12 10:18:22;;;;;;;31.88;15.10;;;;;;;;;;4970356;28;20469;-78
2022/12/12 10:20:51;;;;;;;36.30;15.85;;;;;;;;;;4965890;28;20478;-78
2022/12/12 10:23:39;;;;;;;35.65;15.45;;;;;;;;;;4978551;28;20031;-78
2022/12/12 10:26:07;;;;;;;34.60;14.75;;;;;;;;;;4973216;28;20371;-78
2022/12/12 10:28:34;;;;;;;30.98;14.48;;;;;;;;;;4958473;28;20028;-78
2022/12/12 10:31:19;;;;;;;34.25;15.73;;;;;;;;;;4974930;28;20027;-78
2022/12/12 10:34:20;;;;;;;37.88;16.23;;;;;;;;;;4964429;28;20038;-78
2022/12/12 10:36:52;;;;;;;37.00;15.57;;;;;;;;;;4929096;29;20060;-78
2022/12/12 10:39:24;;;;;;;36.42;16.50;;;;;;;;;;4969992;28;20078;-78
2022/12/12 10:41:53;;;;;;;31.65;14.07;;;;;;;;;;4967600;28;20072;-79
2022/12/12 10:44:38;;;;;;;37.17;17.25;;;;;;;;;;4964307;28;20019;-78
2022/12/12 10:47:05;;;;;;;35.28;16.85;;;;;;;;;;4958518;28;20032;-78
2022/12/12 10:49:32;;;;;;;35.78;16.42;;;;;;;;;;4957188;28;20027;-78
2022/12/12 10:52:00;;;;;;;35.45;15.85;;;;;;;;;;4958353;28;20078;-78
2022/12/12 10:54:27;;;;;;;38.25;16.38;;;;;;;;;;4962448;28;20047;-79
2022/12/12 10:57:04;;;;;;;38.97;17.02;;;;;;;;;;4977635;28;20037;-79
2022/12/12 10:59:30;;;;;;;37.17;15.95;;;;;;;;;;4978341;28;20030;-78
2022/12/12 11:01:58;;;;;;;35.70;15.55;;;;;;;;;;4988800;28;20032;-78
2022/12/12 11:04:25;;;;;;;38.50;16.05;;;;;;;;;;4989590;28;20034;-79
2022/12/12 11:06:52;;;;;;;37.83;16.70;;;;;;;;;;4998165;28;20058;-79
2022/12/12 11:09:22;;;;;;;36.42;16.35;;;;;;;;;;4997052;28;20065;-79
2022/12/12 11:12:00;;;;;;;35.95;16.90;;;;;;;;;;4996901;28;20525;-78
2022/12/12 11:14:34;;;;;;;37.25;16.20;;;;;;;;;;4992896;28;20026;-79
2022/12/12 11:17:00;;;;;;;34.95;16.13;;;;;;;;;;4982109;28;20035;-79
2022/12/12 11:19:27;;;;;;;33.00;15.57;;;;;;;;;;4967120;28;20362;-79
2022/12/12 11:21:54;;;;;;;34.53;16.40;;;;;;;;;;4976293;28;20030;-79
2022/12/12 11:24:22;;;;;;;35.85;16.58;;;;;;;;;;4984292;28;20038;-79
2022/12/12 11:26:58;;;;;;;37.13;16.13;;;;;;;;;;4987605;28;20045;-79
2022/12/12 11:29:30;;;;;;;37.00;17.00;;;;;;;;;;4986514;28;20029;-79
2022/12/12 11:31:58;;;;;;;36.90;16.63;;;;;;;;;;4983638;28;20088;-79
2022/12/12 11:34:25;;;;;;;35.45;15.88;;;;;;;;;;4985423;28;20027;-79
2022/12/12 11:36:51;;;;;;;35.55;16.48;;;;;;;;;;4983439;28;20038;-79
2022/12/12 11:39:37;;;;;;;37.20;17.08;;;;;;;;;;4984410;28;20385;-79
2022/12/12 11:42:06;;;;;;;36.17;16.40;;;;;;;;;;4984709;28;20477;-79
2022/12/12 11:44:34;;;;;;;36.08;16.60;;;;;;;;;;4983673;28;20034;-79
2022/12/12 11:47:18;;;;;;;33.20;15.10;;;;;;;;;;4982643;28;20038;-79
2022/12/12 11:49:48;;;;;;;30.55;13.48;;;;;;;;;;4983960;28;20035;-79
2022/12/12 11:52:18;;;;;;;26.70;12.77;;;;;;;;;;4982852;28;20026;-79
2022/12/12 11:54:44;;;;;;;27.23;13.07;;;;;;;;;;4987307;28;20050;-79
2022/12/12 11:57:19;;;;;;;24.02;11.50;;;;;;;;;;4985175;28;20026;-79
2022/12/12 11:59:47;;;;;;;24.10;11.75;;;;;;;;;;4983827;28;20050;-79
2022/12/12 12:02:32;;;;;;;23.15;11.18;;;;;;;;;;4982881;28;20105;-79
2022/12/12 12:05:21;;;;;;;22.42;10.82;;;;;;;;;;4991831;28;20034;-79
2022/12/12 12:08:16;;;;;;;19.27;10.43;;;;;;;;;;4986830;28;20519;-79
2022/12/12 12:10:50;;;;;;;22.25;10.98;;;;;;;;;;4967885;28;20122;-79
2022/12/12 12:13:28;;;;;;;26.15;11.77;;;;;;;;;;4987130;28;20053;-79
2022/12/12 12:16:13;;;;;;;20.85;10.48;;;;;;;;;;4967222;28;20394;-79
2022/12/12 12:18:42;;;;;;;25.00;11.15;;;;;;;;;;4993869;28;20065;-79
2022/12/12 12:21:34;;;;;;;27.90;13.15;;;;;;;;;;4981949;28;20089;-79
2022/12/12 12:24:21;;;;;;;21.42;10.82;;;;;;;;;;4958834;28;20042;-79
2022/12/12 12:27:00;;;;;;;23.80;10.60;;;;;;;;;;4987282;28;20035;-79
2022/12/12 12:29:45;;;;;;;24.88;11.98;;;;;;;;;;4995299;28;20026;-79
2022/12/12 12:32:29;;;;;;;24.75;10.65;;;;;;;;;;4976588;28;20146;-79
2022/12/12 12:35:18;;;;;;;25.30;10.50;;;;;;;;;;4986909;28;20038;-79
2022/12/12 12:37:50;;;;;;;24.50;11.63;;;;;;;;;;4974871;28;20034;-79
2022/12/12 12:40:37;;;;;;;22.60;10.63;;;;;;;;;;4983896;28;20022;-79
2022/12/12 12:43:03;;;;;;;24.23;11.70;;;;;;;;;;4966186;28;20027;-79
2022/12/12 12:45:50;;;;;;;23.20;11.32;;;;;;;;;;4980150;28;20109;-79
2022/12/12 12:48:21;;;;;;;23.65;12.27;;;;;;;;;;4980896;28;20465;-79
2022/12/12 12:51:02;;;;;;;24.75;11.43;;;;;;;;;;4986611;28;20062;-79
2022/12/12 12:53:32;;;;;;;23.73;11.55;;;;;;;;;;4979991;28;20034;-79
2022/12/12 12:56:00;;;;;;;20.90;10.45;;;;;;;;;;4985682;28;20085;-79
2022/12/12 12:58:36;;;;;;;21.33;11.30;;;;;;;;;;4986637;28;20113;-79
2022/12/12 13:01:08;;;;;;;22.05;11.55;;;;;;;;;;4994265;28;20442;-79
2022/12/12 13:03:39;;;;;;;25.63;10.68;;;;;;;;;;4980402;28;20117;-79
2022/12/12 13:06:12;;;;;;;23.60;11.18;;;;;;;;;;4985558;28;20034;-79
2022/12/12 13:08:50;;;;;;;20.85;11.05;;;;;;;;;;4979591;28;20077;-79
2022/12/12 13:11:27;;;;;;;24.13;11.95;;;;;;;;;;4978825;28;20057;-79
2022/12/12 13:13:56;;;;;;;22.42;11.65;;;;;;;;;;4985826;28;20039;-79
2022/12/12 13:16:24;;;;;;;24.48;11.77;;;;;;;;;;4986132;28;20026;-79
2022/12/12 13:19:00;;;;;;;27.40;13.70;;;;;;;;;;4987069;28;20106;-79
2022/12/12 13:21:28;;;;;;;25.65;11.50;;;;;;;;;;4982771;28;20478;-79
2022/12/12 13:24:11;;;;;;;24.75;13.02;;;;;;;;;;4982214;28;20397;-79
2022/12/12 13:26:40;;;;;;;22.33;12.38;;;;;;;;;;4976204;28;20034;-79
2022/12/12 13:29:25;;;;;;;26.98;13.13;;;;;;;;;;4976756;28;20026;-79
2022/12/12 13:32:09;;;;;;;33.20;13.75;;;;;;;;;;4982894;28;20038;-79
2022/12/12 13:34:38;;;;;;;26.05;12.50;;;;;;;;;;4988736;28;20038;-78
2022/12/12 13:37:05;;;;;;;26.63;12.63;;;;;;;;;;4995767;28;20065;-79
2022/12/12 13:39:35;;;;;;;25.52;12.38;;;;;;;;;;4993637;28;20026;-79
2022/12/12 13:42:03;;;;;;;26.30;13.30;;;;;;;;;;4994410;28;20437;-79
2022/12/12 13:44:32;;;;;;;26.58;12.70;;;;;;;;;;4983763;28;20034;-78
2022/12/12 13:46:59;;;;;;;29.45;12.75;;;;;;;;;;4973015;28;20038;-79
2022/12/12 13:49:33;;;;;;;30.48;13.43;;;;;;;;;;4990999;28;20467;-79
2022/12/12 13:52:18;;;;;;;24.90;12.02;;;;;;;;;;4981727;28;20034;-77
2022/12/12 13:54:45;;;;;;;26.70;13.23;;;;;;;;;;4978104;28;20077;-76
2022/12/12 13:57:12;;;;;;;26.23;12.32;;;;;;;;;;4984055;28;20038;-77
2022/12/12 14:00:10;;;;;;;30.27;13.75;;;;;;;;;;4984746;28;20061;-77
2022/12/12 14:02:38;;;;;;;28.27;12.90;;;;;;;;;;4954552;28;20066;-77
2022/12/12 14:05:07;;;;;;;25.92;12.90;;;;;;;;;;4984525;28;20081;-77
2022/12/12 14:07:34;;;;;;;27.67;13.90;;;;;;;;;;4978619;28;20054;-77
2022/12/12 14:10:01;;;;;;;27.23;12.82;;;;;;;;;;4985624;28;20038;-76
2022/12/12 14:12:33;;;;;;;28.33;13.20;;;;;;;;;;4988694;28;20038;-76
2022/12/12 14:15:07;;;;;;;28.23;13.00;;;;;;;;;;4987587;28;20034;-77
2022/12/12 14:17:35;;;;;;;27.02;12.60;;;;;;;;;;4991386;28;20041;-77
2022/12/12 14:20:02;;;;;;;27.88;13.02;;;;;;;;;;4980542;28;20035;-77
2022/12/12 14:22:39;;;;;;;29.50;13.63;;;;;;;;;;4975033;28;20528;-77
2022/12/12 14:25:05;;;;;;;27.60;13.18;;;;;;;;;;4976542;28;20138;-77
2022/12/12 14:27:49;;;;;;;31.02;13.82;;;;;;;;;;4986633;28;20486;-77
2022/12/12 14:30:30;;;;;;;28.85;14.52;;;;;;;;;;4986717;28;20113;-77
2022/12/12 14:33:04;;;;;;;28.50;13.68;;;;;;;;;;4981804;28;20041;-77
2022/12/12 14:35:49;;;;;;;30.02;13.50;;;;;;;;;;4985108;28;20038;-76
2022/12/12 14:38:29;;;;;;;30.42;13.82;;;;;;;;;;4984496;28;20026;-76
2022/12/12 14:40:58;;;;;;;32.83;13.93;;;;;;;;;;4981581;28;20037;-77
2022/12/12 14:43:26;;;;;;;30.02;14.73;;;;;;;;;;4987267;28;20117;-76
2022/12/12 14:45:54;;;;;;;28.73;14.80;;;;;;;;;;4987720;28;20038;-77
2022/12/12 14:48:20;;;;;;;32.17;14.25;;;;;;;;;;4987180;28;20034;-76
2022/12/12 14:50:50;;;;;;;28.92;13.13;;;;;;;;;;4979364;28;20039;-76